Stations météo

réclame
Mon MeteoGroup
Marknesse aws, Pays-Bas (6273): Température de l'air & dewpoint: 17.04.2018 03:00:00 - 23.04.2018 03:00:00 (CEST)Marknesse aws, Pays-Bas (6273): Température de l'air 5cm & Température de l'air -5cm: 17.04.2018 03:00:00 - 23.04.2018 03:00:00 (CEST)Marknesse aws, Pays-Bas (6273): Température de l'air -20cm & Température de l'air -100cm: 17.04.2018 03:00:00 - 23.04.2018 03:00:00 (CEST)Marknesse aws, Pays-Bas (6273): Vitesse du vent & gusts: 17.04.2018 03:00:00 - 23.04.2018 03:00:00 (CEST)Marknesse aws, Pays-Bas (6273): Direction du vent: 17.04.2018 03:00:00 - 23.04.2018 03:00:00 (CEST)Marknesse aws, Pays-Bas (6273): visibility: 17.04.2018 03:00:00 - 23.04.2018 03:00:00 (CEST)Marknesse aws, Pays-Bas (6273): Quantités de précipitations: 17.04.2018 03:00:00 - 23.04.2018 03:00:00 (CEST)
Date & Time tt [°C] td [°C] tt 5cm [°C] tt -5cm [°C] tt -20cm [°C] tt -100cm [°C] ff [km/h] ff [knt] fx [km/h] fx [knt] dd vv [km] rr [mm]
23.04.2018 03:00:00 13,1 10,5 12,4 14,1 13,9 9,7 11 6 25 14 SW 10 0,0
23.04.2018 02:00:00 14,0 10,3 13,3 14,3 14,0 9,7 18 10 25 14 WSW 17 0,0
23.04.2018 01:00:00 15,3 9,7 14,1 14,6 14,0 9,7 11 6 25 14 SW 21 0,0
23.04.2018 00:00:00 15,9 9,5 14,7 15,0 14,0 9,7 18 10 29 16 SSW 21 0,0
22.04.2018 23:00:00 16,1 10,4 14,5 15,3 14,0 9,6 11 6 18 10 SSW 20 0,0
22.04.2018 22:00:00 17,0 12,2 13,9 15,7 14,0 9,6 11 6 11 6 S 12 0,0
22.04.2018 21:00:00 18,5 13,6 16,9 16,1 13,9 9,6 7 4 14 8 SW 12 0,0
22.04.2018 20:00:00 20,6 14,5 19,9 16,3 13,8 9,6 7 4 25 14 SSW 10 0,0
22.04.2018 19:00:00 21,5 14,4 20,8 16,5 13,7 9,6 18 10 32 18 WNW 10 0,3
22.04.2018 18:00:00 25,2 10,9 25,3 16,5 13,5 9,6 18 10 32 18 W 16 0,0
22.04.2018 17:00:00 25,6 11,6 25,0 16,4 13,3 9,6 11 6 25 14 SSW 22 0,0
22.04.2018 16:00:00 25,1 10,8 24,6 16,3 13,2 9,6 7 4 22 12 SSW 16 0,0
22.04.2018 15:00:00 24,8 11,6 26,5 15,7 13,0 9,6 11 6 18 10 S 12 0,0
22.04.2018 14:00:00 22,9 12,6 23,4 15,1 12,8 9,6 11 6 25 14 SSE 11 0,0
22.04.2018 13:00:00 21,0 11,8 23,3 14,5 12,7 9,5 18 10 25 14 SE 17 0,0
22.04.2018 12:00:00 19,7 10,9 20,7 13,8 12,7 9,5 18 10 25 14 SE 23 0,0
22.04.2018 11:00:00 18,3 9,5 18,8 13,0 12,7 9,5 18 10 29 16 ESE 25 0,0
22.04.2018 10:00:00 16,5 9,0 16,6 12,2 12,7 9,5 14 8 22 12 ESE 21 0,0
22.04.2018 09:00:00 13,6 7,5 13,4 11,8 12,8 9,5 18 10 25 14 E 33 0,0
22.04.2018 08:00:00 11,6 6,8 10,8 11,7 13,0 9,5 18 10 25 14 E 31 0,0
22.04.2018 07:00:00 10,1 6,3 8,9 11,8 13,1 9,5 14 8 22 12 E 37 0,0
22.04.2018 06:00:00 9,8 6,2 8,1 12,0 13,2 9,5 14 8 18 10 E 42 0,0
22.04.2018 05:00:00 9,9 6,0 8,7 12,3 13,4 9,5 14 8 25 14 ESE 39 0,0
22.04.2018 04:00:00 10,9 6,2 9,9 12,6 13,5 9,5 18 10 29 16 E 45 0,0
22.04.2018 03:00:00 11,4 6,4 10,1 12,9 13,6 9,4 18 10 25 14 ESE 42 0,0
22.04.2018 02:00:00 11,0 7,5 9,6 13,2 13,8 9,4 14 8 22 12 E 38 0,0
22.04.2018 01:00:00 10,9 7,1 9,2 13,6 13,9 9,4 18 10 22 12 E 42 0,0
22.04.2018 00:00:00 10,6 7,3 9,2 14,0 14,0 9,4 11 6 18 10 ENE 41 0,0
21.04.2018 23:00:00 11,3 7,5 10,0 14,5 14,1 9,4 11 6 18 10 ENE 44 0,0
21.04.2018 22:00:00 13,3 8,2 11,9 15,1 14,1 9,4 11 6 18 10 NE 38 0,0
21.04.2018 21:00:00 15,0 8,2 13,4 15,6 14,1 9,4 11 6 22 12 NNE 46 0,0
21.04.2018 20:00:00 17,7 7,5 16,1 16,2 14,0 9,4 14 8 22 12 NNE 43 0,0
21.04.2018 19:00:00 19,5 7,4 18,1 16,7 13,9 9,4 14 8 22 12 NE 39 0,0
21.04.2018 18:00:00 20,1 7,2 20,0 17,0 13,8 9,4 11 6 22 12 NE 30 0,0
21.04.2018 17:00:00 20,5 6,9 21,0 17,2 13,6 9,3 7 4 22 12 ENE 20 0,0
21.04.2018 16:00:00 20,4 6,5 21,6 17,2 13,3 9,3 7 4 22 12 NNE 34 0,0
21.04.2018 15:00:00 19,9 6,6 21,6 16,7 13,1 9,3 11 6 18 10 N 35 0,0
21.04.2018 14:00:00 19,6 8,1 21,3 16,0 12,9 9,3 11 6 22 12 ENE 28 0,0
21.04.2018 13:00:00 18,2 7,5 20,5 15,1 12,8 9,3 7 4 22 12 E 33 0,0
21.04.2018 12:00:00 17,6 8,1 19,5 14,2 12,8 9,3 11 6 22 12 ENE 27 0,0
21.04.2018 11:00:00 16,3 7,7 17,8 13,4 12,8 9,3 14 8 22 12 NE 17 0,0
21.04.2018 10:00:00 14,2 8,6 15,9 12,7 12,9 9,3 11 6 14 8 ENE 21 0,0
21.04.2018 09:00:00 12,0 9,4 13,0 12,2 13,0 9,3 11 6 14 8 NE 10 0,0
21.04.2018 08:00:00 9,7 8,9 9,6 12,0 13,1 9,3 7 4 11 6 NNE 6 0,0
21.04.2018 07:00:00 7,6 7,6 5,7 12,3 13,3 9,2 4 2 7 4 N 1,7 0,0
21.04.2018 06:00:00 8,1 8,0 5,7 12,7 13,4 9,2 4 2 7 4 N 1,0 0,0
21.04.2018 05:00:00 8,6 8,5 7,5 13,0 13,5 9,2 4 2 14 8 N 2,0 0,0
21.04.2018 04:00:00 9,5 8,8 8,7 13,4 13,7 9,2 11 6 18 10 N 3,0 0,0
21.04.2018 03:00:00 10,2 9,3 9,4 13,7 13,8 9,2 11 6 18 10 N 2,4 0,0
21.04.2018 02:00:00 10,9 9,7 10,1 14,0 13,9 9,2 14 8 18 10 NNW 2,2 0,0
21.04.2018 01:00:00 11,5 9,5 9,6 14,5 14,0 9,2 7 4 11 6 NNW 2,3 0,0
21.04.2018 00:00:00 12,4 10,4 11,1 14,9 14,1 9,2 7 4 14 8 NNW 2,2 0,0
20.04.2018 23:00:00 13,4 11,0 12,3 15,3 14,1 9,2 11 6 22 12 NNW 2,4 0,0
20.04.2018 22:00:00 14,7 10,9 13,6 15,8 14,2 9,2 14 8 22 12 NW 4,9 0,0
20.04.2018 21:00:00 16,7 10,7 13,8 16,4 14,1 9,2 7 4 18 10 WNW 10 0,0
20.04.2018 20:00:00 19,8 11,2 18,5 16,9 14,0 9,1 14 8 22 12 NW 12 0,0
20.04.2018 19:00:00 22,3 11,5 21,4 17,3 13,9 9,1 14 8 25 14 NW 11 0,0
20.04.2018 18:00:00 23,4 10,6 23,1 17,5 13,7 9,1 22 12 29 16 WNW 12 0,0
20.04.2018 17:00:00 24,8 9,0 24,7 17,5 13,4 9,1 22 12 29 16 WNW 15 0,0
20.04.2018 16:00:00 24,8 11,3 25,2 17,2 13,2 9,1 18 10 29 16 W 10 0,0
20.04.2018 15:00:00 25,0 11,7 25,3 16,6 13,0 9,1 18 10 29 16 W 14 0,0
20.04.2018 14:00:00 24,8 10,7 25,6 15,9 12,8 9,1 18 10 29 16 W 15 0,0
20.04.2018 13:00:00 24,6 11,7 25,1 15,2 12,7 9,1 18 10 25 14 WSW 17 0,0
20.04.2018 12:00:00 23,9 13,3 24,2 14,4 12,6 9,1 14 8 22 12 W 10 0,0
20.04.2018 11:00:00 22,1 12,5 22,6 13,6 12,6 9,1 11 6 18 10 W 9 0,0
20.04.2018 10:00:00 20,0 11,3 20,3 13,0 12,7 9,1 11 6 18 10 WSW 9 0,0
20.04.2018 09:00:00 17,6 11,4 17,0 12,7 12,7 9,0 7 4 11 6 SW 12 0,0
20.04.2018 08:00:00 14,9 10,5 12,2 12,6 12,8 9,0 4 2 11 6 SW 14 0,0
20.04.2018 07:00:00 12,1 9,0 8,6 12,8 12,9 9,0 7 4 11 6 SSW 16 0,0
20.04.2018 06:00:00 13,8 8,6 10,1 13,0 13,0 9,0 7 4 14 8 SSW 20 0,0
20.04.2018 05:00:00 14,8 8,6 12,6 13,2 13,1 9,0 7 4 22 12 S 22 0,0
20.04.2018 04:00:00 16,0 8,5 13,5 13,3 13,2 9,0 14 8 22 12 SSE 25 0,0
20.04.2018 03:00:00 14,3 8,9 9,3 13,6 13,3 9,0 7 4 14 8 SE 26 0,0
20.04.2018 02:00:00 14,2 9,8 12,1 13,9 13,3 9,0 11 6 14 8 ESE 28 0,0
20.04.2018 01:00:00 14,4 10,3 10,9 14,2 13,4 9,0 11 6 18 10 E 22 0,0
20.04.2018 00:00:00 16,1 10,2 11,9 14,5 13,4 9,0 14 8 14 8 E 33 0,0
19.04.2018 23:00:00 15,6 10,9 11,4 14,9 13,4 9,0 7 4 14 8 E 33 0,0
19.04.2018 22:00:00 18,2 10,9 13,7 15,4 13,4 9,0 11 6 14 8 E 38 0,0
19.04.2018 21:00:00 21,0 10,3 17,1 15,8 13,4 9,0 14 8 18 10 SE 25 0,0
19.04.2018 20:00:00 24,1 11,3 21,4 16,0 13,3 8,9 14 8 22 12 SE 44 0,0
19.04.2018 19:00:00 26,8 11,3 24,4 16,2 13,1 8,9 14 8 29 16 ESE 33 0,0
19.04.2018 18:00:00 27,7 9,5 26,1 16,4 13,0 8,9 22 12 32 18 ESE 25 0,0
19.04.2018 17:00:00 28,1 8,1 26,7 16,5 12,8 8,9 25 14 32 18 ESE 39 0,0
19.04.2018 16:00:00 27,8 9,7 26,8 16,4 12,6 8,9 18 10 29 16 SE 33 0,0
19.04.2018 15:00:00 27,5 10,3 26,8 16,0 12,4 8,9 18 10 29 16 SSE 29 0,0
19.04.2018 14:00:00 26,0 10,8 25,7 15,4 12,2 8,9 22 12 32 18 SE 23 0,0
19.04.2018 13:00:00 25,4 9,8 25,2 14,7 12,1 8,9 22 12 36 19 SE 24 0,0
19.04.2018 12:00:00 23,9 10,9 24,2 13,9 12,0 8,9 18 10 25 14 SE 26 0,0
19.04.2018 11:00:00 22,0 11,3 22,4 13,0 12,0 8,9 18 10 22 12 ESE 16 0,0
19.04.2018 10:00:00 20,1 10,9 20,2 12,5 12,0 8,9 11 6 14 8 ESE 16 0,0
19.04.2018 09:00:00 17,0 10,4 16,8 12,1 12,1 8,9 11 6 18 10 ESE 12 0,0
19.04.2018 08:00:00 14,4 10,7 12,7 12,0 12,2 8,9 7 4 11 6 E 8 0,0
19.04.2018 07:00:00 10,8 9,0 7,9 12,1 12,3 8,9 7 4 11 6 ESE 7 0,0
19.04.2018 06:00:00 11,5 8,9 10,0 12,3 12,3 8,8 11 6 18 10 E 8 0,0
19.04.2018 05:00:00 12,2 9,0 10,5 12,5 12,4 8,8 14 8 18 10 ESE 6 0,0
19.04.2018 04:00:00 12,9 9,2 11,3 12,7 12,5 8,8 11 6 18 10 ESE 11 0,0
19.04.2018 03:00:00 14,2 9,0 11,6 12,9 12,6 8,8 14 8 18 10 E 12 0,0
19.04.2018 02:00:00 14,0 9,1 11,3 13,1 12,7 8,8 11 6 18 10 ESE 13 0,0
19.04.2018 01:00:00 14,3 9,3 11,1 13,4 12,7 8,8 11 6 18 10 ESE 14 0,0
19.04.2018 00:00:00 15,2 9,7 9,7 13,7 12,7 8,8 14 8 18 10 E 14 0,0
18.04.2018 23:00:00 14,4 10,8 10,4 14,2 12,8 8,8 4 2 11 6 E 14 0,0
18.04.2018 22:00:00 15,9 11,2 11,3 14,6 12,7 8,8 7 4 11 6 E 18 0,0
18.04.2018 21:00:00 18,3 10,8 14,2 15,1 12,6 8,8 7 4 11 6 ENE 23 0,0
18.04.2018 20:00:00 21,2 11,0 18,6 15,5 12,5 8,8 7 4 14 8 E 16 0,0
18.04.2018 19:00:00 22,9 9,6 21,4 15,8 12,4 8,8 11 6 18 10 ESE 33 0,0
18.04.2018 18:00:00 23,2 9,0 22,6 16,0 12,2 8,8 11 6 18 10 ESE 21 0,0
18.04.2018 17:00:00 23,4 9,0 23,7 16,1 11,9 8,8 11 6 22 12 SE 21 0,0
18.04.2018 16:00:00 23,1 8,7 23,7 15,9 11,7 8,8 11 6 25 14 ESE 21 0,0
18.04.2018 15:00:00 22,9 9,2 24,3 15,3 11,4 8,7 7 4 22 12 ESE 20 0,0
18.04.2018 14:00:00 22,6 9,5 24,0 14,5 11,2 8,7 11 6 22 12 S 21 0,0
18.04.2018 13:00:00 22,2 10,6 23,4 13,5 11,1 8,7 11 6 22 12 S 25 0,0
18.04.2018 12:00:00 21,1 9,6 22,3 12,5 11,0 8,7 11 6 18 10 S 27 0,0
18.04.2018 11:00:00 19,7 10,5 20,7 11,5 11,0 8,7 11 6 11 6 SSW 24 0,0
18.04.2018 10:00:00 17,3 9,9 18,0 10,9 11,0 8,7 7 4 11 6 SSW 21 0,0
18.04.2018 09:00:00 15,4 9,0 15,3 10,4 11,1 8,7 7 4 11 6 S 18 0,0
18.04.2018 08:00:00 11,1 9,0 9,6 10,3 11,2 8,7 4 2 7 4 SE 13 0,0
18.04.2018 07:00:00 7,3 6,7 4,5 10,5 11,3 8,7 4 2 7 4 ESE 9 0,0
18.04.2018 06:00:00 7,3 7,2 4,8 10,7 11,4 8,7 4 2 11 6 SE 9 0,0
18.04.2018 05:00:00 7,4 6,4 4,7 10,9 11,5 8,7 7 4 11 6 ESE 12 0,0
18.04.2018 04:00:00 9,5 7,6 6,0 11,2 11,6 8,7 0 0 14 8 N 14 0,0
18.04.2018 03:00:00 10,1 8,0 6,0 11,4 11,7 8,7 4 2 11 6 S 17 0,0
18.04.2018 02:00:00 9,0 7,8 6,1 11,7 11,8 8,7 7 4 7 4 SSE 16 0,0
18.04.2018 01:00:00 9,1 8,1 6,2 12,1 11,9 8,7 7 4 7 4 SSE 15 0,0
18.04.2018 00:00:00 9,9 8,6 7,3 12,5 11,9 8,6 7 4 7 4 S 18 0,0
17.04.2018 23:00:00 10,8 9,5 7,9 12,9 11,9 8,6 4 2 7 4 SSW 17 0,0
17.04.2018 22:00:00 12,3 10,3 9,2 13,3 11,9 8,6 4 2 7 4 ESE 18 0,0
17.04.2018 21:00:00 14,7 9,9 10,9 13,7 11,8 8,6 4 2 4 2 SW 18 0,0
17.04.2018 20:00:00 16,9 10,7 14,8 14,1 11,7 8,6 4 2 11 6 W 23 0,0
17.04.2018 19:00:00 18,8 9,0 18,5 14,2 11,6 8,6 4 2 14 8 WSW 22 0,0
17.04.2018 18:00:00 19,2 9,6 19,1 14,3 11,4 8,6 11 6 22 12 W 21 0,0
17.04.2018 17:00:00 19,1 8,7 19,5 14,3 11,2 8,6 14 8 29 16 WSW 24 0,0
17.04.2018 16:00:00 19,5 7,4 19,6 14,0 11,0 8,6 18 10 29 16 SW 22 0,0
17.04.2018 15:00:00 19,3 8,4 20,1 13,6 10,8 8,6 18 10 32 18 SSW 25 0,0
17.04.2018 14:00:00 18,2 7,7 19,3 12,8 10,7 8,6 18 10 32 18 SSW 20 0,0
17.04.2018 13:00:00 17,3 7,2 18,9 12,0 10,6 8,6 18 10 32 18 SW 18 0,0
17.04.2018 12:00:00 16,7 7,9 17,8 11,2 10,5 8,6 25 14 32 18 SSW 21 0,0
17.04.2018 11:00:00 15,0 8,3 15,5 10,5 10,6 8,6 18 10 32 18 S 22 0,0
17.04.2018 10:00:00 13,5 7,0 14,0 10,0 10,6 8,6 18 10 29 16 S 24 0,0
17.04.2018 09:00:00 10,9 6,1 10,0 9,7 10,7 8,5 11 6 18 10 S 24 0,0
17.04.2018 08:00:00 8,6 4,6 7,5 9,6 10,9 8,5 11 6 14 8 SSE 29 0,0
17.04.2018 07:00:00 5,5 3,6 3,2 9,8 11,0 8,5 4 2 11 6 SSW 29 0,0
17.04.2018 06:00:00 6,8 3,3 4,2 10,0 11,1 8,5 7 4 14 8 S 36 0,0
17.04.2018 05:00:00 7,1 4,1 3,8 10,2 11,2 8,5 7 4 14 8 S 30 0,0
17.04.2018 04:00:00 7,7 4,4 5,0 10,4 11,3 8,5 11 6 14 8 S 27 0,0
17.04.2018 03:00:00 6,3 4,2 4,5 10,7 11,5 8,5 7 4 14 8 S 25 0,0

tt = Température de l'air
td = dewpoint
tt 5cm = Température de l'air 5cm
tt -5cm = Température de l'air -5cm
tt -20cm = Température de l'air -20cm
tt -100cm = Température de l'air -100cm
ff = Vitesse du vent
fx = gusts
dd = Direction du vent
vv = visibility
rr = Quantités de précipitations

stations d'obs. à proximité